sensor_id;sensor_type;location;lat;lon;timestamp;P1;durP1;ratioP1;P2;durP2;ratioP2
77612;SDS011;66777;52.282;5.960;2023-08-07T00:00:05;523.78;;;510.73;;
77612;SDS011;66777;52.282;5.960;2023-08-07T00:02:34;566.20;;;551.67;;
77612;SDS011;66777;52.282;5.960;2023-08-07T00:05:00;515.38;;;502.98;;
77612;SDS011;66777;52.282;5.960;2023-08-07T00:07:26;565.45;;;551.10;;
77612;SDS011;66777;52.282;5.960;2023-08-07T00:09:52;517.92;;;504.35;;
77612;SDS011;66777;52.282;5.960;2023-08-07T00:12:18;526.72;;;513.72;;
77612;SDS011;66777;52.282;5.960;2023-08-07T00:14:46;511.38;;;498.13;;
77612;SDS011;66777;52.282;5.960;2023-08-07T00:17:12;528.95;;;515.45;;
77612;SDS011;66777;52.282;5.960;2023-08-07T00:19:38;520.92;;;507.73;;
77612;SDS011;66777;52.282;5.960;2023-08-07T00:22:04;524.78;;;511.70;;
77612;SDS011;66777;52.282;5.960;2023-08-07T00:24:30;516.97;;;503.35;;
77612;SDS011;66777;52.282;5.960;2023-08-07T00:26:56;529.30;;;515.10;;
77612;SDS011;66777;52.282;5.960;2023-08-07T00:29:21;517.80;;;504.60;;
77612;SDS011;66777;52.282;5.960;2023-08-07T00:31:47;522.38;;;509.27;;
77612;SDS011;66777;52.282;5.960;2023-08-07T00:34:14;568.42;;;553.92;;
77612;SDS011;66777;52.282;5.960;2023-08-07T00:36:40;519.80;;;506.50;;
77612;SDS011;66777;52.282;5.960;2023-08-07T00:39:06;529.60;;;516.60;;
77612;SDS011;66777;52.282;5.960;2023-08-07T00:41:33;526.20;;;513.00;;
77612;SDS011;66777;52.282;5.960;2023-08-07T00:43:59;525.50;;;512.38;;
77612;SDS011;66777;52.282;5.960;2023-08-07T00:46:26;524.15;;;511.48;;
77612;SDS011;66777;52.282;5.960;2023-08-07T00:48:53;520.20;;;507.50;;
77612;SDS011;66777;52.282;5.960;2023-08-07T00:51:20;514.55;;;502.05;;
77612;SDS011;66777;52.282;5.960;2023-08-07T00:53:47;574.90;;;560.65;;
77612;SDS011;66777;52.282;5.960;2023-08-07T00:56:14;512.92;;;499.92;;
77612;SDS011;66777;52.282;5.960;2023-08-07T00:58:40;527.80;;;514.65;;
77612;SDS011;66777;52.282;5.960;2023-08-07T01:01:06;562.30;;;547.60;;
77612;SDS011;66777;52.282;5.960;2023-08-07T01:03:32;511.50;;;498.65;;
77612;SDS011;66777;52.282;5.960;2023-08-07T01:05:58;517.80;;;505.00;;
77612;SDS011;66777;52.282;5.960;2023-08-07T01:08:24;514.22;;;500.85;;
77612;SDS011;66777;52.282;5.960;2023-08-07T01:13:39;501.48;;;489.02;;
77612;SDS011;66777;52.282;5.960;2023-08-07T01:16:13;512.63;;;499.05;;
77612;SDS011;66777;52.282;5.960;2023-08-07T01:18:44;505.13;;;492.08;;
77612;SDS011;66777;52.282;5.960;2023-08-07T01:21:18;508.75;;;495.75;;
77612;SDS011;66777;52.282;5.960;2023-08-07T01:23:47;501.02;;;488.25;;
77612;SDS011;66777;52.282;5.960;2023-08-07T01:26:13;501.85;;;488.80;;
77612;SDS011;66777;52.282;5.960;2023-08-07T01:28:46;497.88;;;485.42;;
77612;SDS011;66777;52.282;5.960;2023-08-07T01:31:19;491.52;;;478.27;;
77612;SDS011;66777;52.282;5.960;2023-08-07T01:33:51;487.70;;;475.33;;
77612;SDS011;66777;52.282;5.960;2023-08-07T01:36:21;497.35;;;484.75;;
77612;SDS011;66777;52.282;5.960;2023-08-07T01:38:50;547.28;;;533.72;;
77612;SDS011;66777;52.282;5.960;2023-08-07T01:41:17;494.30;;;481.70;;
77612;SDS011;66777;52.282;5.960;2023-08-07T01:43:44;491.58;;;479.13;;
77612;SDS011;66777;52.282;5.960;2023-08-07T01:46:11;546.45;;;532.40;;
77612;SDS011;66777;52.282;5.960;2023-08-07T01:48:37;500.05;;;487.50;;
77612;SDS011;66777;52.282;5.960;2023-08-07T01:51:03;494.45;;;481.77;;
77612;SDS011;66777;52.282;5.960;2023-08-07T01:53:28;490.83;;;478.40;;
77612;SDS011;66777;52.282;5.960;2023-08-07T01:55:54;500.33;;;487.90;;
77612;SDS011;66777;52.282;5.960;2023-08-07T01:58:20;489.20;;;476.30;;
77612;SDS011;66777;52.282;5.960;2023-08-07T02:00:46;482.98;;;470.45;;
77612;SDS011;66777;52.282;5.960;2023-08-07T02:03:11;493.65;;;480.90;;
77612;SDS011;66777;52.282;5.960;2023-08-07T02:05:37;484.90;;;472.25;;
77612;SDS011;66777;52.282;5.960;2023-08-07T02:08:03;485.70;;;473.65;;
77612;SDS011;66777;52.282;5.960;2023-08-07T02:10:29;494.00;;;480.88;;
77612;SDS011;66777;52.282;5.960;2023-08-07T02:12:56;484.27;;;472.08;;
77612;SDS011;66777;52.282;5.960;2023-08-07T02:15:22;495.55;;;482.90;;
77612;SDS011;66777;52.282;5.960;2023-08-07T02:17:48;500.02;;;486.90;;
77612;SDS011;66777;52.282;5.960;2023-08-07T02:20:14;546.42;;;532.50;;
77612;SDS011;66777;52.282;5.960;2023-08-07T02:22:40;494.23;;;482.00;;
77612;SDS011;66777;52.282;5.960;2023-08-07T02:25:06;490.02;;;476.98;;
77612;SDS011;66777;52.282;5.960;2023-08-07T02:27:32;494.17;;;481.23;;
77612;SDS011;66777;52.282;5.960;2023-08-07T02:29:58;492.17;;;479.30;;
77612;SDS011;66777;52.282;5.960;2023-08-07T02:32:24;495.40;;;482.85;;
77612;SDS011;66777;52.282;5.960;2023-08-07T02:34:50;492.88;;;480.38;;
77612;SDS011;66777;52.282;5.960;2023-08-07T02:37:15;488.65;;;476.30;;
77612;SDS011;66777;52.282;5.960;2023-08-07T02:39:41;506.83;;;493.33;;
77612;SDS011;66777;52.282;5.960;2023-08-07T02:42:08;499.92;;;487.42;;
77612;SDS011;66777;52.282;5.960;2023-08-07T02:44:34;537.22;;;523.63;;
77612;SDS011;66777;52.282;5.960;2023-08-07T02:47:00;490.73;;;478.42;;
77612;SDS011;66777;52.282;5.960;2023-08-07T02:49:25;496.60;;;483.80;;
77612;SDS011;66777;52.282;5.960;2023-08-07T02:51:51;490.15;;;478.00;;
77612;SDS011;66777;52.282;5.960;2023-08-07T02:54:17;489.73;;;477.80;;
77612;SDS011;66777;52.282;5.960;2023-08-07T02:56:43;494.30;;;481.98;;
77612;SDS011;66777;52.282;5.960;2023-08-07T02:59:09;499.30;;;486.27;;
77612;SDS011;66777;52.282;5.960;2023-08-07T03:01:34;495.98;;;483.75;;
77612;SDS011;66777;52.282;5.960;2023-08-07T03:04:00;490.90;;;478.83;;
77612;SDS011;66777;52.282;5.960;2023-08-07T03:06:26;494.10;;;481.58;;
77612;SDS011;66777;52.282;5.960;2023-08-07T03:08:51;497.48;;;484.90;;
77612;SDS011;66777;52.282;5.960;2023-08-07T03:11:17;497.08;;;484.45;;
77612;SDS011;66777;52.282;5.960;2023-08-07T03:13:42;490.17;;;477.10;;
77612;SDS011;66777;52.282;5.960;2023-08-07T03:16:09;484.17;;;472.38;;
77612;SDS011;66777;52.282;5.960;2023-08-07T03:18:36;499.08;;;486.45;;
77612;SDS011;66777;52.282;5.960;2023-08-07T03:21:02;500.90;;;488.27;;
77612;SDS011;66777;52.282;5.960;2023-08-07T03:23:28;543.97;;;530.47;;
77612;SDS011;66777;52.282;5.960;2023-08-07T03:28:30;496.05;;;483.02;;
77612;SDS011;66777;52.282;5.960;2023-08-07T03:30:55;497.25;;;484.17;;
77612;SDS011;66777;52.282;5.960;2023-08-07T03:33:21;485.90;;;472.90;;
77612;SDS011;66777;52.282;5.960;2023-08-07T03:35:47;540.55;;;527.00;;
77612;SDS011;66777;52.282;5.960;2023-08-07T03:38:13;492.67;;;479.55;;
77612;SDS011;66777;52.282;5.960;2023-08-07T03:40:38;496.25;;;483.17;;
77612;SDS011;66777;52.282;5.960;2023-08-07T03:43:04;496.52;;;483.67;;
77612;SDS011;66777;52.282;5.960;2023-08-07T03:45:31;506.08;;;492.23;;
77612;SDS011;66777;52.282;5.960;2023-08-07T03:47:56;497.88;;;485.55;;
77612;SDS011;66777;52.282;5.960;2023-08-07T03:50:22;500.33;;;486.50;;
77612;SDS011;66777;52.282;5.960;2023-08-07T03:52:48;494.92;;;481.90;;
77612;SDS011;66777;52.282;5.960;2023-08-07T03:55:14;488.80;;;475.60;;
77612;SDS011;66777;52.282;5.960;2023-08-07T03:57:41;551.97;;;537.60;;
77612;SDS011;66777;52.282;5.960;2023-08-07T04:00:07;494.88;;;481.73;;
77612;SDS011;66777;52.282;5.960;2023-08-07T04:02:33;499.88;;;486.85;;
77612;SDS011;66777;52.282;5.960;2023-08-07T04:04:59;505.70;;;492.02;;
77612;SDS011;66777;52.282;5.960;2023-08-07T04:07:25;494.73;;;481.33;;
77612;SDS011;66777;52.282;5.960;2023-08-07T04:09:50;495.35;;;482.42;;
77612;SDS011;66777;52.282;5.960;2023-08-07T04:12:16;501.85;;;488.85;;
77612;SDS011;66777;52.282;5.960;2023-08-07T04:14:42;551.38;;;537.25;;
77612;SDS011;66777;52.282;5.960;2023-08-07T04:17:07;508.85;;;495.83;;
77612;SDS011;66777;52.282;5.960;2023-08-07T04:19:33;506.63;;;493.75;;
77612;SDS011;66777;52.282;5.960;2023-08-07T04:21:59;512.65;;;499.15;;
77612;SDS011;66777;52.282;5.960;2023-08-07T04:24:25;504.13;;;490.98;;
77612;SDS011;66777;52.282;5.960;2023-08-07T04:26:50;561.60;;;547.45;;
77612;SDS011;66777;52.282;5.960;2023-08-07T04:29:16;507.95;;;495.20;;
77612;SDS011;66777;52.282;5.960;2023-08-07T04:31:42;517.65;;;500.63;;
77612;SDS011;66777;52.282;5.960;2023-08-07T04:34:08;504.70;;;491.70;;
77612;SDS011;66777;52.282;5.960;2023-08-07T04:36:33;517.63;;;504.65;;
77612;SDS011;66777;52.282;5.960;2023-08-07T04:38:59;502.90;;;490.42;;
77612;SDS011;66777;52.282;5.960;2023-08-07T04:41:25;527.53;;;514.15;;
77612;SDS011;66777;52.282;5.960;2023-08-07T04:43:51;556.40;;;542.15;;
77612;SDS011;66777;52.282;5.960;2023-08-07T04:46:17;515.72;;;502.63;;
77612;SDS011;66777;52.282;5.960;2023-08-07T04:48:43;513.83;;;500.45;;
77612;SDS011;66777;52.282;5.960;2023-08-07T04:51:08;508.73;;;495.98;;
77612;SDS011;66777;52.282;5.960;2023-08-07T04:53:34;517.85;;;504.48;;
77612;SDS011;66777;52.282;5.960;2023-08-07T04:56:01;514.47;;;501.45;;
77612;SDS011;66777;52.282;5.960;2023-08-07T04:58:27;514.88;;;501.13;;
77612;SDS011;66777;52.282;5.960;2023-08-07T05:00:56;515.97;;;502.55;;
77612;SDS011;66777;52.282;5.960;2023-08-07T05:03:23;518.63;;;505.45;;
77612;SDS011;66777;52.282;5.960;2023-08-07T05:05:49;511.77;;;498.02;;
77612;SDS011;66777;52.282;5.960;2023-08-07T05:08:16;521.28;;;507.30;;
77612;SDS011;66777;52.282;5.960;2023-08-07T05:10:42;525.45;;;512.15;;
77612;SDS011;66777;52.282;5.960;2023-08-07T05:13:08;571.55;;;556.08;;
77612;SDS011;66777;52.282;5.960;2023-08-07T05:15:34;527.70;;;514.20;;
77612;SDS011;66777;52.282;5.960;2023-08-07T05:17:59;570.40;;;554.95;;
77612;SDS011;66777;52.282;5.960;2023-08-07T05:20:25;528.78;;;515.08;;
77612;SDS011;66777;52.282;5.960;2023-08-07T05:22:51;531.10;;;517.55;;
77612;SDS011;66777;52.282;5.960;2023-08-07T05:25:17;535.72;;;521.65;;
77612;SDS011;66777;52.282;5.960;2023-08-07T05:27:44;535.28;;;520.95;;
77612;SDS011;66777;52.282;5.960;2023-08-07T05:30:10;540.95;;;526.25;;
77612;SDS011;66777;52.282;5.960;2023-08-07T05:32:40;553.75;;;538.97;;
77612;SDS011;66777;52.282;5.960;2023-08-07T05:35:06;550.60;;;536.17;;
77612;SDS011;66777;52.282;5.960;2023-08-07T05:37:33;598.60;;;582.33;;
77612;SDS011;66777;52.282;5.960;2023-08-07T05:39:59;567.97;;;552.63;;
77612;SDS011;66777;52.282;5.960;2023-08-07T05:42:24;557.90;;;542.92;;
77612;SDS011;66777;52.282;5.960;2023-08-07T05:44:50;550.17;;;534.83;;
77612;SDS011;66777;52.282;5.960;2023-08-07T05:47:16;542.60;;;527.55;;
77612;SDS011;66777;52.282;5.960;2023-08-07T05:49:42;550.17;;;535.08;;
77612;SDS011;66777;52.282;5.960;2023-08-07T05:52:08;537.30;;;522.67;;
77612;SDS011;66777;52.282;5.960;2023-08-07T05:54:34;553.05;;;537.60;;
77612;SDS011;66777;52.282;5.960;2023-08-07T05:57:00;573.47;;;558.17;;
77612;SDS011;66777;52.282;5.960;2023-08-07T05:59:26;537.38;;;523.20;;
77612;SDS011;66777;52.282;5.960;2023-08-07T06:01:52;528.08;;;514.22;;
77612;SDS011;66777;52.282;5.960;2023-08-07T06:04:18;532.88;;;518.78;;
77612;SDS011;66777;52.282;5.960;2023-08-07T06:06:44;534.47;;;520.50;;
77612;SDS011;66777;52.282;5.960;2023-08-07T06:09:11;525.58;;;511.45;;
77612;SDS011;66777;52.282;5.960;2023-08-07T06:11:37;516.30;;;502.88;;
77612;SDS011;66777;52.282;5.960;2023-08-07T06:14:03;535.35;;;521.13;;
77612;SDS011;66777;52.282;5.960;2023-08-07T06:16:28;532.80;;;517.95;;
77612;SDS011;66777;52.282;5.960;2023-08-07T06:18:55;572.67;;;557.28;;
77612;SDS011;66777;52.282;5.960;2023-08-07T06:21:20;536.92;;;522.45;;
77612;SDS011;66777;52.282;5.960;2023-08-07T06:23:46;528.60;;;514.67;;
77612;SDS011;66777;52.282;5.960;2023-08-07T06:26:12;531.10;;;516.50;;
77612;SDS011;66777;52.282;5.960;2023-08-07T06:28:38;531.47;;;516.72;;
77612;SDS011;66777;52.282;5.960;2023-08-07T06:31:05;532.33;;;517.35;;
77612;SDS011;66777;52.282;5.960;2023-08-07T06:33:32;517.22;;;502.90;;
77612;SDS011;66777;52.282;5.960;2023-08-07T06:35:58;580.00;;;563.95;;
77612;SDS011;66777;52.282;5.960;2023-08-07T06:38:24;521.92;;;508.15;;
77612;SDS011;66777;52.282;5.960;2023-08-07T06:40:51;535.35;;;520.63;;
77612;SDS011;66777;52.282;5.960;2023-08-07T06:43:17;535.25;;;520.17;;
77612;SDS011;66777;52.282;5.960;2023-08-07T06:45:43;551.38;;;535.60;;
77612;SDS011;66777;52.282;5.960;2023-08-07T06:48:12;566.88;;;551.47;;
77612;SDS011;66777;52.282;5.960;2023-08-07T06:50:37;533.08;;;518.20;;
77612;SDS011;66777;52.282;5.960;2023-08-07T06:53:03;524.25;;;509.48;;
77612;SDS011;66777;52.282;5.960;2023-08-07T06:55:29;579.33;;;563.28;;
77612;SDS011;66777;52.282;5.960;2023-08-07T06:57:54;541.95;;;526.63;;
77612;SDS011;66777;52.282;5.960;2023-08-07T07:00:20;534.58;;;520.03;;
77612;SDS011;66777;52.282;5.960;2023-08-07T07:02:45;534.03;;;519.60;;
77612;SDS011;66777;52.282;5.960;2023-08-07T07:05:11;532.25;;;517.58;;
77612;SDS011;66777;52.282;5.960;2023-08-07T07:07:37;526.55;;;512.45;;
77612;SDS011;66777;52.282;5.960;2023-08-07T07:10:04;543.58;;;528.90;;
77612;SDS011;66777;52.282;5.960;2023-08-07T07:12:30;525.28;;;511.45;;
77612;SDS011;66777;52.282;5.960;2023-08-07T07:14:56;538.33;;;523.97;;
77612;SDS011;66777;52.282;5.960;2023-08-07T07:17:23;531.35;;;516.83;;
77612;SDS011;66777;52.282;5.960;2023-08-07T07:19:49;535.13;;;520.03;;
77612;SDS011;66777;52.282;5.960;2023-08-07T07:22:14;523.15;;;508.88;;
77612;SDS011;66777;52.282;5.960;2023-08-07T07:24:41;533.38;;;519.08;;
77612;SDS011;66777;52.282;5.960;2023-08-07T07:27:07;522.90;;;508.55;;
77612;SDS011;66777;52.282;5.960;2023-08-07T07:29:33;532.83;;;518.38;;
77612;SDS011;66777;52.282;5.960;2023-08-07T07:31:59;528.97;;;514.22;;
77612;SDS011;66777;52.282;5.960;2023-08-07T07:34:24;527.80;;;512.63;;
77612;SDS011;66777;52.282;5.960;2023-08-07T07:36:50;538.67;;;523.63;;
77612;SDS011;66777;52.282;5.960;2023-08-07T07:39:18;534.10;;;519.25;;
77612;SDS011;66777;52.282;5.960;2023-08-07T07:41:44;548.72;;;533.17;;
77612;SDS011;66777;52.282;5.960;2023-08-07T07:44:10;585.25;;;569.22;;
77612;SDS011;66777;52.282;5.960;2023-08-07T07:46:35;536.95;;;521.92;;
77612;SDS011;66777;52.282;5.960;2023-08-07T07:49:01;547.50;;;531.45;;
77612;SDS011;66777;52.282;5.960;2023-08-07T07:51:28;552.05;;;536.92;;
77612;SDS011;66777;52.282;5.960;2023-08-07T07:53:54;545.80;;;529.45;;
77612;SDS011;66777;52.282;5.960;2023-08-07T07:56:20;544.33;;;529.20;;
77612;SDS011;66777;52.282;5.960;2023-08-07T07:58:46;549.55;;;534.40;;
77612;SDS011;66777;52.282;5.960;2023-08-07T08:01:12;552.42;;;537.05;;
77612;SDS011;66777;52.282;5.960;2023-08-07T08:03:39;561.53;;;545.53;;
77612;SDS011;66777;52.282;5.960;2023-08-07T08:06:05;558.83;;;543.53;;
77612;SDS011;66777;52.282;5.960;2023-08-07T08:08:30;563.35;;;548.03;;
77612;SDS011;66777;52.282;5.960;2023-08-07T08:10:56;551.92;;;536.67;;
77612;SDS011;66777;52.282;5.960;2023-08-07T08:13:22;539.78;;;525.03;;
77612;SDS011;66777;52.282;5.960;2023-08-07T08:15:49;556.65;;;541.42;;
77612;SDS011;66777;52.282;5.960;2023-08-07T08:18:14;582.65;;;566.67;;
77612;SDS011;66777;52.282;5.960;2023-08-07T08:20:40;551.45;;;536.15;;
77612;SDS011;66777;52.282;5.960;2023-08-07T08:23:05;549.80;;;534.08;;
77612;SDS011;66777;52.282;5.960;2023-08-07T08:25:31;552.10;;;537.15;;
77612;SDS011;66777;52.282;5.960;2023-08-07T08:27:58;550.30;;;535.78;;
77612;SDS011;66777;52.282;5.960;2023-08-07T08:30:25;588.72;;;572.72;;
77612;SDS011;66777;52.282;5.960;2023-08-07T08:32:50;548.92;;;533.92;;
77612;SDS011;66777;52.282;5.960;2023-08-07T08:35:16;591.83;;;575.72;;
77612;SDS011;66777;52.282;5.960;2023-08-07T08:37:42;561.83;;;546.67;;
77612;SDS011;66777;52.282;5.960;2023-08-07T08:40:09;547.38;;;532.65;;
77612;SDS011;66777;52.282;5.960;2023-08-07T08:42:38;559.22;;;544.72;;
77612;SDS011;66777;52.282;5.960;2023-08-07T08:45:06;597.78;;;581.83;;
77612;SDS011;66777;52.282;5.960;2023-08-07T08:47:38;600.95;;;584.53;;
77612;SDS011;66777;52.282;5.960;2023-08-07T08:50:08;553.90;;;539.35;;
77612;SDS011;66777;52.282;5.960;2023-08-07T08:52:37;592.70;;;575.97;;
77612;SDS011;66777;52.282;5.960;2023-08-07T08:55:06;590.70;;;575.05;;
77612;SDS011;66777;52.282;5.960;2023-08-07T08:57:33;552.53;;;538.05;;
77612;SDS011;66777;52.282;5.960;2023-08-07T09:00:00;536.67;;;522.75;;
77612;SDS011;66777;52.282;5.960;2023-08-07T09:02:32;550.83;;;535.78;;
77612;SDS011;66777;52.282;5.960;2023-08-07T09:04:58;548.05;;;533.00;;
77612;SDS011;66777;52.282;5.960;2023-08-07T09:07:24;588.17;;;572.47;;
77612;SDS011;66777;52.282;5.960;2023-08-07T09:09:51;537.08;;;522.65;;
77612;SDS011;66777;52.282;5.960;2023-08-07T09:12:22;535.28;;;520.80;;
77612;SDS011;66777;52.282;5.960;2023-08-07T09:14:53;537.85;;;523.78;;
77612;SDS011;66777;52.282;5.960;2023-08-07T09:17:26;538.45;;;524.10;;
77612;SDS011;66777;52.282;5.960;2023-08-07T09:19:54;575.75;;;560.38;;
77612;SDS011;66777;52.282;5.960;2023-08-07T09:22:20;530.72;;;517.10;;
77612;SDS011;66777;52.282;5.960;2023-08-07T09:24:46;535.63;;;521.38;;
77612;SDS011;66777;52.282;5.960;2023-08-07T09:27:13;584.50;;;569.00;;
77612;SDS011;66777;52.282;5.960;2023-08-07T09:29:39;540.50;;;525.97;;
77612;SDS011;66777;52.282;5.960;2023-08-07T09:32:06;532.40;;;518.10;;
77612;SDS011;66777;52.282;5.960;2023-08-07T09:34:33;541.45;;;527.35;;
77612;SDS011;66777;52.282;5.960;2023-08-07T09:36:59;530.28;;;516.65;;
77612;SDS011;66777;52.282;5.960;2023-08-07T09:39:25;536.30;;;522.30;;
77612;SDS011;66777;52.282;5.960;2023-08-07T09:41:52;556.78;;;542.00;;
77612;SDS011;66777;52.282;5.960;2023-08-07T09:44:18;534.28;;;520.38;;
77612;SDS011;66777;52.282;5.960;2023-08-07T09:46:44;533.58;;;519.95;;
77612;SDS011;66777;52.282;5.960;2023-08-07T09:49:10;545.33;;;531.42;;
77612;SDS011;66777;52.282;5.960;2023-08-07T09:51:45;544.30;;;530.22;;
77612;SDS011;66777;52.282;5.960;2023-08-07T09:54:12;530.53;;;517.13;;
77612;SDS011;66777;52.282;5.960;2023-08-07T09:56:39;579.13;;;564.03;;
77612;SDS011;66777;52.282;5.960;2023-08-07T09:59:05;535.95;;;521.97;;
77612;SDS011;66777;52.282;5.960;2023-08-07T10:01:32;539.10;;;525.22;;
77612;SDS011;66777;52.282;5.960;2023-08-07T10:03:57;541.38;;;527.35;;
77612;SDS011;66777;52.282;5.960;2023-08-07T10:06:23;547.53;;;533.22;;
77612;SDS011;66777;52.282;5.960;2023-08-07T10:08:49;551.13;;;537.22;;
77612;SDS011;66777;52.282;5.960;2023-08-07T10:11:16;544.05;;;530.22;;
77612;SDS011;66777;52.282;5.960;2023-08-07T10:13:42;556.00;;;542.00;;
77612;SDS011;66777;52.282;5.960;2023-08-07T10:16:08;548.58;;;534.72;;
77612;SDS011;66777;52.282;5.960;2023-08-07T10:18:36;555.92;;;541.92;;
77612;SDS011;66777;52.282;5.960;2023-08-07T10:21:04;552.72;;;538.58;;
77612;SDS011;66777;52.282;5.960;2023-08-07T10:23:34;561.55;;;547.25;;
77612;SDS011;66777;52.282;5.960;2023-08-07T10:26:01;567.97;;;553.33;;
77612;SDS011;66777;52.282;5.960;2023-08-07T10:28:29;565.72;;;551.13;;
77612;SDS011;66777;52.282;5.960;2023-08-07T10:30:58;563.75;;;549.35;;
77612;SDS011;66777;52.282;5.960;2023-08-07T10:33:24;561.10;;;546.58;;
77612;SDS011;66777;52.282;5.960;2023-08-07T10:35:51;559.65;;;545.13;;
77612;SDS011;66777;52.282;5.960;2023-08-07T10:38:18;596.63;;;581.05;;
77612;SDS011;66777;52.282;5.960;2023-08-07T10:43:36;549.88;;;536.10;;
77612;SDS011;66777;52.282;5.960;2023-08-07T10:46:07;593.20;;;577.85;;
77612;SDS011;66777;52.282;5.960;2023-08-07T10:48:45;597.92;;;582.75;;
77612;SDS011;66777;52.282;5.960;2023-08-07T10:51:17;561.88;;;547.65;;
77612;SDS011;66777;52.282;5.960;2023-08-07T10:53:47;548.50;;;534.65;;
77612;SDS011;66777;52.282;5.960;2023-08-07T10:56:17;596.95;;;581.55;;
77612;SDS011;66777;52.282;5.960;2023-08-07T10:59:07;556.58;;;542.88;;
77612;SDS011;66777;52.282;5.960;2023-08-07T11:04:12;562.83;;;548.58;;
77612;SDS011;66777;52.282;5.960;2023-08-07T11:06:40;549.95;;;536.17;;
77612;SDS011;66777;52.282;5.960;2023-08-07T11:09:07;550.08;;;536.33;;
77612;SDS011;66777;52.282;5.960;2023-08-07T11:14:07;556.15;;;542.20;;
77612;SDS011;66777;52.282;5.960;2023-08-07T11:16:36;552.92;;;539.00;;
77612;SDS011;66777;52.282;5.960;2023-08-07T11:19:03;559.42;;;545.38;;
77612;SDS011;66777;52.282;5.960;2023-08-07T11:21:32;560.70;;;546.47;;
77612;SDS011;66777;52.282;5.960;2023-08-07T11:23:59;561.42;;;547.25;;
77612;SDS011;66777;52.282;5.960;2023-08-07T11:26:25;554.53;;;540.60;;
77612;SDS011;66777;52.282;5.960;2023-08-07T11:28:53;558.33;;;543.95;;
77612;SDS011;66777;52.282;5.960;2023-08-07T11:31:22;561.17;;;547.05;;
77612;SDS011;66777;52.282;5.960;2023-08-07T11:33:50;559.75;;;545.72;;
77612;SDS011;66777;52.282;5.960;2023-08-07T11:36:16;561.08;;;547.13;;
77612;SDS011;66777;52.282;5.960;2023-08-07T11:38:43;558.47;;;544.47;;
77612;SDS011;66777;52.282;5.960;2023-08-07T11:41:10;598.80;;;583.25;;
77612;SDS011;66777;52.282;5.960;2023-08-07T11:43:40;562.83;;;548.42;;
77612;SDS011;66777;52.282;5.960;2023-08-07T11:46:07;571.22;;;556.42;;
77612;SDS011;66777;52.282;5.960;2023-08-07T11:48:35;576.10;;;561.35;;
77612;SDS011;66777;52.282;5.960;2023-08-07T11:51:02;577.65;;;562.92;;
77612;SDS011;66777;52.282;5.960;2023-08-07T11:53:29;568.95;;;554.55;;
77612;SDS011;66777;52.282;5.960;2023-08-07T11:55:57;576.92;;;562.20;;
77612;SDS011;66777;52.282;5.960;2023-08-07T11:58:39;573.97;;;559.33;;
77612;SDS011;66777;52.282;5.960;2023-08-07T12:01:06;570.75;;;556.05;;
77612;SDS011;66777;52.282;5.960;2023-08-07T12:03:36;623.70;;;607.25;;
77612;SDS011;66777;52.282;5.960;2023-08-07T12:06:06;582.50;;;567.55;;
77612;SDS011;66777;52.282;5.960;2023-08-07T12:08:40;580.00;;;565.05;;
77612;SDS011;66777;52.282;5.960;2023-08-07T12:11:07;586.42;;;571.08;;
77612;SDS011;66777;52.282;5.960;2023-08-07T12:13:41;577.20;;;562.20;;
77612;SDS011;66777;52.282;5.960;2023-08-07T12:16:09;575.72;;;560.80;;
77612;SDS011;66777;52.282;5.960;2023-08-07T12:18:42;605.65;;;589.88;;
77612;SDS011;66777;52.282;5.960;2023-08-07T12:21:10;570.70;;;556.28;;
77612;SDS011;66777;52.282;5.960;2023-08-07T12:23:36;577.28;;;562.47;;
77612;SDS011;66777;52.282;5.960;2023-08-07T12:26:05;612.58;;;596.65;;
77612;SDS011;66777;52.282;5.960;2023-08-07T12:28:32;577.03;;;562.45;;
77612;SDS011;66777;52.282;5.960;2023-08-07T12:30:58;586.33;;;571.13;;
77612;SDS011;66777;52.282;5.960;2023-08-07T12:33:23;580.95;;;566.20;;
77612;SDS011;66777;52.282;5.960;2023-08-07T12:35:49;582.92;;;567.85;;
77612;SDS011;66777;52.282;5.960;2023-08-07T12:38:15;578.00;;;563.28;;
77612;SDS011;66777;52.282;5.960;2023-08-07T12:40:42;574.90;;;560.05;;
77612;SDS011;66777;52.282;5.960;2023-08-07T12:43:08;608.55;;;592.55;;
77612;SDS011;66777;52.282;5.960;2023-08-07T12:45:34;579.92;;;565.22;;
77612;SDS011;66777;52.282;5.960;2023-08-07T12:48:00;574.65;;;560.03;;
77612;SDS011;66777;52.282;5.960;2023-08-07T12:50:28;567.60;;;553.20;;
77612;SDS011;66777;52.282;5.960;2023-08-07T12:52:54;607.35;;;591.47;;
77612;SDS011;66777;52.282;5.960;2023-08-07T12:55:21;575.55;;;560.85;;
77612;SDS011;66777;52.282;5.960;2023-08-07T12:57:46;577.53;;;562.60;;
77612;SDS011;66777;52.282;5.960;2023-08-07T13:00:14;575.05;;;560.53;;
77612;SDS011;66777;52.282;5.960;2023-08-07T13:02:41;581.80;;;567.03;;
77612;SDS011;66777;52.282;5.960;2023-08-07T13:05:10;618.97;;;602.67;;
77612;SDS011;66777;52.282;5.960;2023-08-07T13:07:37;591.28;;;575.92;;
77612;SDS011;66777;52.282;5.960;2023-08-07T13:10:04;581.53;;;566.42;;
77612;SDS011;66777;52.282;5.960;2023-08-07T13:12:34;589.33;;;574.05;;
77612;SDS011;66777;52.282;5.960;2023-08-07T13:15:02;614.90;;;598.65;;
77612;SDS011;66777;52.282;5.960;2023-08-07T13:17:30;584.28;;;569.05;;
77612;SDS011;66777;52.282;5.960;2023-08-07T13:19:57;591.88;;;576.28;;
77612;SDS011;66777;52.282;5.960;2023-08-07T13:22:27;621.97;;;605.25;;
77612;SDS011;66777;52.282;5.960;2023-08-07T13:24:53;577.25;;;562.35;;
77612;SDS011;66777;52.282;5.960;2023-08-07T13:27:19;619.45;;;602.80;;
77612;SDS011;66777;52.282;5.960;2023-08-07T13:29:44;597.33;;;581.75;;
77612;SDS011;66777;52.282;5.960;2023-08-07T13:32:11;594.95;;;579.58;;
77612;SDS011;66777;52.282;5.960;2023-08-07T13:34:38;620.30;;;603.83;;
77612;SDS011;66777;52.282;5.960;2023-08-07T13:37:04;580.72;;;565.50;;
77612;SDS011;66777;52.282;5.960;2023-08-07T13:39:31;575.33;;;560.70;;
77612;SDS011;66777;52.282;5.960;2023-08-07T13:41:56;585.72;;;570.78;;
77612;SDS011;66777;52.282;5.960;2023-08-07T13:44:22;589.00;;;573.92;;
77612;SDS011;66777;52.282;5.960;2023-08-07T13:46:48;587.92;;;572.63;;
77612;SDS011;66777;52.282;5.960;2023-08-07T13:49:14;590.45;;;575.15;;
77612;SDS011;66777;52.282;5.960;2023-08-07T13:51:40;594.10;;;578.72;;
77612;SDS011;66777;52.282;5.960;2023-08-07T13:54:06;596.33;;;580.90;;
77612;SDS011;66777;52.282;5.960;2023-08-07T13:56:33;596.55;;;580.60;;
77612;SDS011;66777;52.282;5.960;2023-08-07T13:58:59;590.58;;;575.38;;
77612;SDS011;66777;52.282;5.960;2023-08-07T14:01:25;624.47;;;607.88;;
77612;SDS011;66777;52.282;5.960;2023-08-07T14:03:53;618.97;;;602.45;;
77612;SDS011;66777;52.282;5.960;2023-08-07T14:06:18;587.70;;;572.40;;